sensor_id;sensor_type;location;lat;lon;timestamp;temperature;humidity
68051;DHT22;54839;51.364;7.246;2023-04-10T00:02:21;6.60;99.90
68051;DHT22;54839;51.364;7.246;2023-04-10T00:04:47;6.60;99.90
68051;DHT22;54839;51.364;7.246;2023-04-10T00:07:13;6.60;99.90
68051;DHT22;54839;51.364;7.246;2023-04-10T00:09:38;6.50;99.90
68051;DHT22;54839;51.364;7.246;2023-04-10T00:12:04;6.50;99.90
68051;DHT22;54839;51.364;7.246;2023-04-10T00:14:30;6.50;99.90
68051;DHT22;54839;51.364;7.246;2023-04-10T00:16:56;6.40;99.90
68051;DHT22;54839;51.364;7.246;2023-04-10T00:19:21;6.40;99.90
68051;DHT22;54839;51.364;7.246;2023-04-10T00:21:47;6.30;99.90
68051;DHT22;54839;51.364;7.246;2023-04-10T00:24:12;6.30;99.90
68051;DHT22;54839;51.364;7.246;2023-04-10T00:26:39;6.30;99.90
68051;DHT22;54839;51.364;7.246;2023-04-10T00:29:04;6.30;99.90
68051;DHT22;54839;51.364;7.246;2023-04-10T00:31:30;6.40;99.90
68051;DHT22;54839;51.364;7.246;2023-04-10T00:33:56;6.50;99.90
68051;DHT22;54839;51.364;7.246;2023-04-10T00:36:22;6.40;99.90
68051;DHT22;54839;51.364;7.246;2023-04-10T00:38:47;6.50;99.90
68051;DHT22;54839;51.364;7.246;2023-04-10T00:41:14;6.60;99.90
68051;DHT22;54839;51.364;7.246;2023-04-10T00:43:40;6.60;99.90
68051;DHT22;54839;51.364;7.246;2023-04-10T00:46:06;6.50;99.90
68051;DHT22;54839;51.364;7.246;2023-04-10T00:48:32;6.50;99.90
68051;DHT22;54839;51.364;7.246;2023-04-10T00:50:58;6.50;99.90
68051;DHT22;54839;51.364;7.246;2023-04-10T00:53:24;6.50;99.90
68051;DHT22;54839;51.364;7.246;2023-04-10T00:55:49;6.30;99.90
68051;DHT22;54839;51.364;7.246;2023-04-10T00:58:15;6.40;99.90
68051;DHT22;54839;51.364;7.246;2023-04-10T01:00:40;6.30;99.90
68051;DHT22;54839;51.364;7.246;2023-04-10T01:03:11;6.30;99.90
68051;DHT22;54839;51.364;7.246;2023-04-10T01:05:50;6.20;99.90
68051;DHT22;54839;51.364;7.246;2023-04-10T01:08:37;6.30;99.90
68051;DHT22;54839;51.364;7.246;2023-04-10T01:11:16;6.30;99.90
68051;DHT22;54839;51.364;7.246;2023-04-10T01:13:52;6.30;99.90
68051;DHT22;54839;51.364;7.246;2023-04-10T01:16:28;6.20;99.90
68051;DHT22;54839;51.364;7.246;2023-04-10T01:19:06;6.10;99.90
68051;DHT22;54839;51.364;7.246;2023-04-10T01:21:35;6.20;99.90
68051;DHT22;54839;51.364;7.246;2023-04-10T01:24:23;6.10;99.90
68051;DHT22;54839;51.364;7.246;2023-04-10T01:27:08;6.10;99.90
68051;DHT22;54839;51.364;7.246;2023-04-10T01:29:38;6.10;99.90
68051;DHT22;54839;51.364;7.246;2023-04-10T01:32:12;6.10;99.90
68051;DHT22;54839;51.364;7.246;2023-04-10T01:34:38;6.10;99.90
68051;DHT22;54839;51.364;7.246;2023-04-10T01:37:09;6.10;99.90
68051;DHT22;54839;51.364;7.246;2023-04-10T01:39:38;6.20;99.90
68051;DHT22;54839;51.364;7.246;2023-04-10T01:42:06;6.20;99.90
68051;DHT22;54839;51.364;7.246;2023-04-10T01:44:35;6.20;99.90
68051;DHT22;54839;51.364;7.246;2023-04-10T01:47:03;6.30;99.90
68051;DHT22;54839;51.364;7.246;2023-04-10T01:49:30;6.30;99.90
68051;DHT22;54839;51.364;7.246;2023-04-10T01:51:59;6.50;99.90
68051;DHT22;54839;51.364;7.246;2023-04-10T01:54:30;6.60;99.90
68051;DHT22;54839;51.364;7.246;2023-04-10T01:56:58;6.60;99.90
68051;DHT22;54839;51.364;7.246;2023-04-10T01:59:24;6.80;99.90
68051;DHT22;54839;51.364;7.246;2023-04-10T02:01:58;6.80;99.90
68051;DHT22;54839;51.364;7.246;2023-04-10T02:04:24;6.90;99.90
68051;DHT22;54839;51.364;7.246;2023-04-10T02:07:03;6.90;99.90
68051;DHT22;54839;51.364;7.246;2023-04-10T02:12:10;6.90;99.90
68051;DHT22;54839;51.364;7.246;2023-04-10T02:14:43;6.90;99.90
68051;DHT22;54839;51.364;7.246;2023-04-10T02:17:15;6.90;99.90
68051;DHT22;54839;51.364;7.246;2023-04-10T02:19:44;6.80;99.90
68051;DHT22;54839;51.364;7.246;2023-04-10T02:22:10;6.80;99.90
68051;DHT22;54839;51.364;7.246;2023-04-10T02:24:37;6.80;99.90
68051;DHT22;54839;51.364;7.246;2023-04-10T02:27:02;6.90;99.90
68051;DHT22;54839;51.364;7.246;2023-04-10T02:29:28;6.80;99.90
68051;DHT22;54839;51.364;7.246;2023-04-10T02:31:53;6.70;99.90
68051;DHT22;54839;51.364;7.246;2023-04-10T02:34:19;6.80;99.90
68051;DHT22;54839;51.364;7.246;2023-04-10T02:36:45;6.80;99.90
68051;DHT22;54839;51.364;7.246;2023-04-10T02:39:10;6.80;99.90
68051;DHT22;54839;51.364;7.246;2023-04-10T02:41:36;6.90;99.90
68051;DHT22;54839;51.364;7.246;2023-04-10T02:44:01;6.90;99.90
68051;DHT22;54839;51.364;7.246;2023-04-10T02:46:27;6.80;99.90
68051;DHT22;54839;51.364;7.246;2023-04-10T02:48:53;7.00;99.90
68051;DHT22;54839;51.364;7.246;2023-04-10T02:51:18;7.10;99.90
68051;DHT22;54839;51.364;7.246;2023-04-10T02:53:44;7.00;99.90
68051;DHT22;54839;51.364;7.246;2023-04-10T02:56:09;7.10;99.90
68051;DHT22;54839;51.364;7.246;2023-04-10T02:58:36;7.30;99.90
68051;DHT22;54839;51.364;7.246;2023-04-10T03:01:04;7.10;99.90
68051;DHT22;54839;51.364;7.246;2023-04-10T03:03:31;7.30;99.90
68051;DHT22;54839;51.364;7.246;2023-04-10T03:05:56;7.30;99.90
68051;DHT22;54839;51.364;7.246;2023-04-10T03:08:22;7.20;99.90
68051;DHT22;54839;51.364;7.246;2023-04-10T03:10:48;7.20;99.90
68051;DHT22;54839;51.364;7.246;2023-04-10T03:13:14;7.30;99.90
68051;DHT22;54839;51.364;7.246;2023-04-10T03:15:40;7.40;99.90
68051;DHT22;54839;51.364;7.246;2023-04-10T03:18:05;7.30;99.90
68051;DHT22;54839;51.364;7.246;2023-04-10T03:20:32;7.20;99.90
68051;DHT22;54839;51.364;7.246;2023-04-10T03:22:58;7.20;99.90
68051;DHT22;54839;51.364;7.246;2023-04-10T03:25:24;7.10;99.90
68051;DHT22;54839;51.364;7.246;2023-04-10T03:27:50;7.10;99.90
68051;DHT22;54839;51.364;7.246;2023-04-10T03:30:16;7.20;99.90
68051;DHT22;54839;51.364;7.246;2023-04-10T03:32:41;7.30;99.90
68051;DHT22;54839;51.364;7.246;2023-04-10T03:35:08;7.30;99.90
68051;DHT22;54839;51.364;7.246;2023-04-10T03:37:34;7.20;99.90
68051;DHT22;54839;51.364;7.246;2023-04-10T03:39:59;7.00;99.90
68051;DHT22;54839;51.364;7.246;2023-04-10T03:42:25;7.10;99.90
68051;DHT22;54839;51.364;7.246;2023-04-10T03:44:51;7.20;99.90
68051;DHT22;54839;51.364;7.246;2023-04-10T03:47:16;7.20;99.90
68051;DHT22;54839;51.364;7.246;2023-04-10T03:49:42;7.20;99.90
68051;DHT22;54839;51.364;7.246;2023-04-10T03:52:07;7.10;99.90
68051;DHT22;54839;51.364;7.246;2023-04-10T03:54:33;7.10;99.90
68051;DHT22;54839;51.364;7.246;2023-04-10T03:56:59;7.20;99.90
68051;DHT22;54839;51.364;7.246;2023-04-10T03:59:25;7.20;99.90
68051;DHT22;54839;51.364;7.246;2023-04-10T04:01:51;7.30;99.90
68051;DHT22;54839;51.364;7.246;2023-04-10T04:04:17;7.10;99.90
68051;DHT22;54839;51.364;7.246;2023-04-10T04:06:43;7.10;99.90
68051;DHT22;54839;51.364;7.246;2023-04-10T04:09:08;7.20;99.90
68051;DHT22;54839;51.364;7.246;2023-04-10T04:11:34;7.20;99.90
68051;DHT22;54839;51.364;7.246;2023-04-10T04:14:00;7.30;99.90
68051;DHT22;54839;51.364;7.246;2023-04-10T04:16:25;7.20;99.90
68051;DHT22;54839;51.364;7.246;2023-04-10T04:18:51;7.10;99.90
68051;DHT22;54839;51.364;7.246;2023-04-10T04:21:17;7.00;99.90
68051;DHT22;54839;51.364;7.246;2023-04-10T04:23:42;6.90;99.90
68051;DHT22;54839;51.364;7.246;2023-04-10T04:26:08;7.00;99.90
68051;DHT22;54839;51.364;7.246;2023-04-10T04:28:34;7.00;99.90
68051;DHT22;54839;51.364;7.246;2023-04-10T04:31:00;6.90;99.90
68051;DHT22;54839;51.364;7.246;2023-04-10T04:33:26;6.90;99.90
68051;DHT22;54839;51.364;7.246;2023-04-10T04:35:52;6.90;99.90
68051;DHT22;54839;51.364;7.246;2023-04-10T04:38:18;6.80;99.90
68051;DHT22;54839;51.364;7.246;2023-04-10T04:40:44;6.90;99.90
68051;DHT22;54839;51.364;7.246;2023-04-10T04:43:10;6.90;99.90
68051;DHT22;54839;51.364;7.246;2023-04-10T04:45:36;6.80;99.90
68051;DHT22;54839;51.364;7.246;2023-04-10T04:48:01;6.80;99.90
68051;DHT22;54839;51.364;7.246;2023-04-10T04:50:27;6.70;99.90
68051;DHT22;54839;51.364;7.246;2023-04-10T04:52:52;6.60;99.90
68051;DHT22;54839;51.364;7.246;2023-04-10T04:55:18;6.50;99.90
68051;DHT22;54839;51.364;7.246;2023-04-10T04:57:43;6.60;99.90
68051;DHT22;54839;51.364;7.246;2023-04-10T05:00:09;6.40;99.90
68051;DHT22;54839;51.364;7.246;2023-04-10T05:02:35;6.50;99.90
68051;DHT22;54839;51.364;7.246;2023-04-10T05:05:00;6.40;99.90
68051;DHT22;54839;51.364;7.246;2023-04-10T05:07:26;6.50;99.90
68051;DHT22;54839;51.364;7.246;2023-04-10T05:09:52;6.40;99.90
68051;DHT22;54839;51.364;7.246;2023-04-10T05:12:17;6.30;99.90
68051;DHT22;54839;51.364;7.246;2023-04-10T05:14:44;6.40;99.90
68051;DHT22;54839;51.364;7.246;2023-04-10T05:17:10;6.40;99.90
68051;DHT22;54839;51.364;7.246;2023-04-10T05:19:35;6.40;99.90
68051;DHT22;54839;51.364;7.246;2023-04-10T05:22:01;6.50;99.90
68051;DHT22;54839;51.364;7.246;2023-04-10T05:24:27;6.40;99.90
68051;DHT22;54839;51.364;7.246;2023-04-10T05:26:52;6.40;99.90
68051;DHT22;54839;51.364;7.246;2023-04-10T05:29:18;6.50;99.90
68051;DHT22;54839;51.364;7.246;2023-04-10T05:31:43;6.50;99.90
68051;DHT22;54839;51.364;7.246;2023-04-10T05:34:09;6.70;99.90
68051;DHT22;54839;51.364;7.246;2023-04-10T05:36:34;7.00;99.90
68051;DHT22;54839;51.364;7.246;2023-04-10T05:39:01;7.10;99.90
68051;DHT22;54839;51.364;7.246;2023-04-10T05:41:26;7.30;99.90
68051;DHT22;54839;51.364;7.246;2023-04-10T05:43:52;7.50;99.90
68051;DHT22;54839;51.364;7.246;2023-04-10T05:46:17;7.70;99.90
68051;DHT22;54839;51.364;7.246;2023-04-10T05:48:43;7.60;99.90
68051;DHT22;54839;51.364;7.246;2023-04-10T05:51:08;7.60;99.90
68051;DHT22;54839;51.364;7.246;2023-04-10T05:53:34;7.70;99.90
68051;DHT22;54839;51.364;7.246;2023-04-10T05:55:59;7.80;99.90
68051;DHT22;54839;51.364;7.246;2023-04-10T05:58:27;7.90;99.90
68051;DHT22;54839;51.364;7.246;2023-04-10T06:00:53;8.00;99.90
68051;DHT22;54839;51.364;7.246;2023-04-10T06:03:20;8.10;99.90
68051;DHT22;54839;51.364;7.246;2023-04-10T06:05:46;8.30;99.90
68051;DHT22;54839;51.364;7.246;2023-04-10T06:08:11;8.30;99.90
68051;DHT22;54839;51.364;7.246;2023-04-10T06:10:37;8.40;99.90
68051;DHT22;54839;51.364;7.246;2023-04-10T06:13:03;8.60;99.90
68051;DHT22;54839;51.364;7.246;2023-04-10T06:15:28;8.60;99.90
68051;DHT22;54839;51.364;7.246;2023-04-10T06:17:54;8.70;99.90
68051;DHT22;54839;51.364;7.246;2023-04-10T06:20:20;8.90;99.90
68051;DHT22;54839;51.364;7.246;2023-04-10T06:22:46;9.10;99.90
68051;DHT22;54839;51.364;7.246;2023-04-10T06:25:11;9.00;99.90
68051;DHT22;54839;51.364;7.246;2023-04-10T06:27:37;9.10;99.90
68051;DHT22;54839;51.364;7.246;2023-04-10T06:30:03;9.10;99.90
68051;DHT22;54839;51.364;7.246;2023-04-10T06:32:29;9.30;99.90
68051;DHT22;54839;51.364;7.246;2023-04-10T06:34:55;9.30;99.90
68051;DHT22;54839;51.364;7.246;2023-04-10T06:37:30;9.30;99.90
68051;DHT22;54839;51.364;7.246;2023-04-10T06:40:07;9.30;99.90
68051;DHT22;54839;51.364;7.246;2023-04-10T06:42:33;9.20;99.90
68051;DHT22;54839;51.364;7.246;2023-04-10T06:44:59;9.40;99.90
68051;DHT22;54839;51.364;7.246;2023-04-10T06:47:25;9.40;99.90
68051;DHT22;54839;51.364;7.246;2023-04-10T06:49:51;9.50;99.90
68051;DHT22;54839;51.364;7.246;2023-04-10T06:52:16;9.50;99.90
68051;DHT22;54839;51.364;7.246;2023-04-10T06:54:42;9.60;99.90
68051;DHT22;54839;51.364;7.246;2023-04-10T06:57:08;9.70;99.90
68051;DHT22;54839;51.364;7.246;2023-04-10T06:59:35;9.90;99.90
68051;DHT22;54839;51.364;7.246;2023-04-10T07:02:02;10.00;99.90
68051;DHT22;54839;51.364;7.246;2023-04-10T07:04:27;10.10;99.90
68051;DHT22;54839;51.364;7.246;2023-04-10T07:06:53;10.30;99.90
68051;DHT22;54839;51.364;7.246;2023-04-10T07:09:18;10.60;99.90
68051;DHT22;54839;51.364;7.246;2023-04-10T07:11:44;10.70;99.90
68051;DHT22;54839;51.364;7.246;2023-04-10T07:14:10;10.80;99.90
68051;DHT22;54839;51.364;7.246;2023-04-10T07:16:36;11.00;99.90
68051;DHT22;54839;51.364;7.246;2023-04-10T07:19:01;11.00;99.90
68051;DHT22;54839;51.364;7.246;2023-04-10T07:21:27;11.20;99.90
68051;DHT22;54839;51.364;7.246;2023-04-10T07:23:53;11.30;99.90
68051;DHT22;54839;51.364;7.246;2023-04-10T07:26:18;11.30;99.90
68051;DHT22;54839;51.364;7.246;2023-04-10T07:28:44;11.40;99.90
68051;DHT22;54839;51.364;7.246;2023-04-10T07:31:10;11.50;99.90
68051;DHT22;54839;51.364;7.246;2023-04-10T07:33:37;11.40;99.90
68051;DHT22;54839;51.364;7.246;2023-04-10T07:36:03;11.40;99.90
68051;DHT22;54839;51.364;7.246;2023-04-10T07:38:30;11.40;99.90
68051;DHT22;54839;51.364;7.246;2023-04-10T07:40:59;11.40;99.90
68051;DHT22;54839;51.364;7.246;2023-04-10T07:43:25;11.60;99.90
68051;DHT22;54839;51.364;7.246;2023-04-10T07:45:51;11.70;99.90
68051;DHT22;54839;51.364;7.246;2023-04-10T07:48:17;11.80;99.90
68051;DHT22;54839;51.364;7.246;2023-04-10T07:50:42;11.90;99.90
68051;DHT22;54839;51.364;7.246;2023-04-10T07:53:08;12.10;99.90
68051;DHT22;54839;51.364;7.246;2023-04-10T07:55:42;12.20;99.90
68051;DHT22;54839;51.364;7.246;2023-04-10T07:58:08;12.00;99.90
68051;DHT22;54839;51.364;7.246;2023-04-10T08:00:34;12.00;99.90
68051;DHT22;54839;51.364;7.246;2023-04-10T08:03:00;11.90;99.90
68051;DHT22;54839;51.364;7.246;2023-04-10T08:05:26;11.80;99.90
68051;DHT22;54839;51.364;7.246;2023-04-10T08:07:51;11.80;99.90
68051;DHT22;54839;51.364;7.246;2023-04-10T08:10:17;11.80;99.90
68051;DHT22;54839;51.364;7.246;2023-04-10T08:12:42;11.80;99.90
68051;DHT22;54839;51.364;7.246;2023-04-10T08:15:08;11.80;99.90
68051;DHT22;54839;51.364;7.246;2023-04-10T08:17:34;11.80;99.90
68051;DHT22;54839;51.364;7.246;2023-04-10T08:20:00;11.90;99.90
68051;DHT22;54839;51.364;7.246;2023-04-10T08:22:26;12.00;99.90
68051;DHT22;54839;51.364;7.246;2023-04-10T08:24:51;12.10;99.90
68051;DHT22;54839;51.364;7.246;2023-04-10T08:27:17;12.30;99.90
68051;DHT22;54839;51.364;7.246;2023-04-10T08:29:42;12.50;99.90
68051;DHT22;54839;51.364;7.246;2023-04-10T08:32:08;12.60;99.90
68051;DHT22;54839;51.364;7.246;2023-04-10T08:34:33;12.70;99.90
68051;DHT22;54839;51.364;7.246;2023-04-10T08:37:00;12.80;99.90
68051;DHT22;54839;51.364;7.246;2023-04-10T08:39:25;12.90;99.90
68051;DHT22;54839;51.364;7.246;2023-04-10T08:41:51;13.10;99.90
68051;DHT22;54839;51.364;7.246;2023-04-10T08:44:16;13.20;99.90
68051;DHT22;54839;51.364;7.246;2023-04-10T08:46:43;13.20;99.90
68051;DHT22;54839;51.364;7.246;2023-04-10T08:49:16;13.50;99.90
68051;DHT22;54839;51.364;7.246;2023-04-10T08:51:51;13.70;99.90
68051;DHT22;54839;51.364;7.246;2023-04-10T08:54:32;13.70;99.60
68051;DHT22;54839;51.364;7.246;2023-04-10T08:56:58;14.10;99.90
68051;DHT22;54839;51.364;7.246;2023-04-10T08:59:27;14.20;98.40
68051;DHT22;54839;51.364;7.246;2023-04-10T09:01:53;14.20;97.50
68051;DHT22;54839;51.364;7.246;2023-04-10T09:04:19;14.30;95.80
68051;DHT22;54839;51.364;7.246;2023-04-10T09:06:45;14.30;95.30
68051;DHT22;54839;51.364;7.246;2023-04-10T09:09:11;14.10;93.20
68051;DHT22;54839;51.364;7.246;2023-04-10T09:14:21;14.20;92.10
68051;DHT22;54839;51.364;7.246;2023-04-10T09:16:47;14.30;91.90
68051;DHT22;54839;51.364;7.246;2023-04-10T09:19:13;14.50;92.10
68051;DHT22;54839;51.364;7.246;2023-04-10T09:21:38;14.60;91.90
68051;DHT22;54839;51.364;7.246;2023-04-10T09:24:14;15.10;92.30
68051;DHT22;54839;51.364;7.246;2023-04-10T09:26:41;14.80;90.60
68051;DHT22;54839;51.364;7.246;2023-04-10T09:29:06;14.90;91.20
68051;DHT22;54839;51.364;7.246;2023-04-10T09:31:36;14.90;91.00
68051;DHT22;54839;51.364;7.246;2023-04-10T09:34:17;14.90;90.10
68051;DHT22;54839;51.364;7.246;2023-04-10T09:36:51;15.20;91.00
68051;DHT22;54839;51.364;7.246;2023-04-10T09:39:17;15.20;90.30
68051;DHT22;54839;51.364;7.246;2023-04-10T09:41:50;15.40;89.90
68051;DHT22;54839;51.364;7.246;2023-04-10T09:44:27;15.70;90.00
68051;DHT22;54839;51.364;7.246;2023-04-10T09:46:54;15.30;88.50
68051;DHT22;54839;51.364;7.246;2023-04-10T09:49:19;15.40;88.40
68051;DHT22;54839;51.364;7.246;2023-04-10T09:51:46;15.50;90.10
68051;DHT22;54839;51.364;7.246;2023-04-10T09:54:14;15.60;87.70
68051;DHT22;54839;51.364;7.246;2023-04-10T09:56:40;15.10;86.00
68051;DHT22;54839;51.364;7.246;2023-04-10T09:59:09;15.20;87.10
68051;DHT22;54839;51.364;7.246;2023-04-10T10:01:36;15.20;87.70
68051;DHT22;54839;51.364;7.246;2023-04-10T10:04:03;15.50;88.50
68051;DHT22;54839;51.364;7.246;2023-04-10T10:06:32;15.60;86.90
68051;DHT22;54839;51.364;7.246;2023-04-10T10:09:03;15.60;85.70
68051;DHT22;54839;51.364;7.246;2023-04-10T10:11:31;15.80;85.80
68051;DHT22;54839;51.364;7.246;2023-04-10T10:13:59;16.00;85.70
68051;DHT22;54839;51.364;7.246;2023-04-10T10:16:38;16.10;82.70
68051;DHT22;54839;51.364;7.246;2023-04-10T10:19:12;15.40;79.50
68051;DHT22;54839;51.364;7.246;2023-04-10T10:21:43;15.60;81.70
68051;DHT22;54839;51.364;7.246;2023-04-10T10:24:09;15.50;82.10
68051;DHT22;54839;51.364;7.246;2023-04-10T10:26:38;15.70;82.20
68051;DHT22;54839;51.364;7.246;2023-04-10T10:29:06;15.80;81.10
68051;DHT22;54839;51.364;7.246;2023-04-10T10:31:35;16.00;82.00
68051;DHT22;54839;51.364;7.246;2023-04-10T10:34:02;15.90;80.50
68051;DHT22;54839;51.364;7.246;2023-04-10T10:36:31;16.00;81.00
68051;DHT22;54839;51.364;7.246;2023-04-10T10:39:08;16.10;81.10
68051;DHT22;54839;51.364;7.246;2023-04-10T10:42:29;16.10;81.40
68051;DHT22;54839;51.364;7.246;2023-04-10T10:44:42;16.00;79.50
68051;DHT22;54839;51.364;7.246;2023-04-10T10:47:23;16.20;80.30
68051;DHT22;54839;51.364;7.246;2023-04-10T10:50:02;16.10;77.80
68051;DHT22;54839;51.364;7.246;2023-04-10T10:52:47;16.60;81.00
68051;DHT22;54839;51.364;7.246;2023-04-10T10:57:50;16.60;77.40
68051;DHT22;54839;51.364;7.246;2023-04-10T11:00:20;16.80;77.90
68051;DHT22;54839;51.364;7.246;2023-04-10T11:05:53;16.30;76.40
68051;DHT22;54839;51.364;7.246;2023-04-10T11:13:30;16.60;77.60
68051;DHT22;54839;51.364;7.246;2023-04-10T11:15:57;16.80;75.70
68051;DHT22;54839;51.364;7.246;2023-04-10T11:19:03;16.80;74.10
68051;DHT22;54839;51.364;7.246;2023-04-10T11:21:28;17.10;75.00
68051;DHT22;54839;51.364;7.246;2023-04-10T11:28:58;17.60;77.00
68051;DHT22;54839;51.364;7.246;2023-04-10T11:31:25;18.00;74.80
68051;DHT22;54839;51.364;7.246;2023-04-10T11:36:23;17.60;74.40
68051;DHT22;54839;51.364;7.246;2023-04-10T11:39:03;17.20;74.90
68051;DHT22;54839;51.364;7.246;2023-04-10T11:41:35;17.40;74.90
68051;DHT22;54839;51.364;7.246;2023-04-10T11:44:04;17.20;74.00
68051;DHT22;54839;51.364;7.246;2023-04-10T11:46:30;17.50;73.20
68051;DHT22;54839;51.364;7.246;2023-04-10T11:49:00;17.40;72.60
68051;DHT22;54839;51.364;7.246;2023-04-10T11:51:26;17.80;73.10
68051;DHT22;54839;51.364;7.246;2023-04-10T11:54:24;18.10;73.30
68051;DHT22;54839;51.364;7.246;2023-04-10T11:57:03;17.80;71.70
68051;DHT22;54839;51.364;7.246;2023-04-10T11:59:30;17.80;72.20
68051;DHT22;54839;51.364;7.246;2023-04-10T12:02:11;18.00;71.10
68051;DHT22;54839;51.364;7.246;2023-04-10T12:04:38;17.40;69.00
68051;DHT22;54839;51.364;7.246;2023-04-10T12:07:04;17.50;71.10
68051;DHT22;54839;51.364;7.246;2023-04-10T12:09:30;17.80;69.30
68051;DHT22;54839;51.364;7.246;2023-04-10T12:12:01;18.00;70.20
68051;DHT22;54839;51.364;7.246;2023-04-10T12:14:32;18.10;69.10
68051;DHT22;54839;51.364;7.246;2023-04-10T12:16:59;18.30;69.80
68051;DHT22;54839;51.364;7.246;2023-04-10T12:19:24;18.40;69.30
68051;DHT22;54839;51.364;7.246;2023-04-10T12:21:50;18.50;68.60
68051;DHT22;54839;51.364;7.246;2023-04-10T12:24:48;18.80;69.30
68051;DHT22;54839;51.364;7.246;2023-04-10T12:27:24;18.60;67.60
68051;DHT22;54839;51.364;7.246;2023-04-10T12:29:55;18.70;67.30
68051;DHT22;54839;51.364;7.246;2023-04-10T12:32:21;19.20;66.80
68051;DHT22;54839;51.364;7.246;2023-04-10T12:34:52;19.40;65.40
68051;DHT22;54839;51.364;7.246;2023-04-10T12:37:18;19.60;67.00
68051;DHT22;54839;51.364;7.246;2023-04-10T12:39:44;20.10;66.10
68051;DHT22;54839;51.364;7.246;2023-04-10T12:42:20;19.80;60.40
68051;DHT22;54839;51.364;7.246;2023-04-10T12:44:59;19.80;62.00
68051;DHT22;54839;51.364;7.246;2023-04-10T12:47:27;19.30;56.60
68051;DHT22;54839;51.364;7.246;2023-04-10T12:50:16;19.80;57.70
68051;DHT22;54839;51.364;7.246;2023-04-10T12:52:44;20.20;55.90
68051;DHT22;54839;51.364;7.246;2023-04-10T12:55:19;20.70;55.70
68051;DHT22;54839;51.364;7.246;2023-04-10T12:57:48;19.90;53.30
68051;DHT22;54839;51.364;7.246;2023-04-10T13:00:19;20.00;52.70
68051;DHT22;54839;51.364;7.246;2023-04-10T13:02:46;19.30;51.80
68051;DHT22;54839;51.364;7.246;2023-04-10T13:05:13;19.80;53.10
68051;DHT22;54839;51.364;7.246;2023-04-10T13:07:39;20.50;52.60
68051;DHT22;54839;51.364;7.246;2023-04-10T13:10:06;20.60;51.20
68051;DHT22;54839;51.364;7.246;2023-04-10T13:12:33;20.70;50.20
68051;DHT22;54839;51.364;7.246;2023-04-10T13:15:00;20.40;50.40
68051;DHT22;54839;51.364;7.246;2023-04-10T13:17:27;20.40;50.90
68051;DHT22;54839;51.364;7.246;2023-04-10T13:19:52;20.40;50.90
68051;DHT22;54839;51.364;7.246;2023-04-10T13:22:18;19.90;50.30
68051;DHT22;54839;51.364;7.246;2023-04-10T13:24:44;19.20;50.40
68051;DHT22;54839;51.364;7.246;2023-04-10T13:27:11;18.50;51.00
68051;DHT22;54839;51.364;7.246;2023-04-10T13:29:41;18.20;51.70
68051;DHT22;54839;51.364;7.246;2023-04-10T13:32:06;18.30;52.80
68051;DHT22;54839;51.364;7.246;2023-04-10T13:34:32;18.60;53.50
68051;DHT22;54839;51.364;7.246;2023-04-10T13:36:58;18.50;53.00
68051;DHT22;54839;51.364;7.246;2023-04-10T13:39:25;18.50;53.30
68051;DHT22;54839;51.364;7.246;2023-04-10T13:41:51;18.80;53.70
68051;DHT22;54839;51.364;7.246;2023-04-10T13:44:16;18.40;53.20
68051;DHT22;54839;51.364;7.246;2023-04-10T13:46:42;18.50;54.10
68051;DHT22;54839;51.364;7.246;2023-04-10T13:49:07;18.00;54.20
68051;DHT22;54839;51.364;7.246;2023-04-10T13:51:33;18.10;55.40
68051;DHT22;54839;51.364;7.246;2023-04-10T13:53:58;18.40;54.90
68051;DHT22;54839;51.364;7.246;2023-04-10T13:56:24;18.50;55.40
68051;DHT22;54839;51.364;7.246;2023-04-10T13:58:50;18.60;55.60
68051;DHT22;54839;51.364;7.246;2023-04-10T14:01:15;18.40;55.00
68051;DHT22;54839;51.364;7.246;2023-04-10T14:03:41;18.10;55.10
68051;DHT22;54839;51.364;7.246;2023-04-10T14:06:07;18.10;56.40
68051;DHT22;54839;51.364;7.246;2023-04-10T14:08:32;18.60;56.60
68051;DHT22;54839;51.364;7.246;2023-04-10T14:10:58;18.40;56.40
68051;DHT22;54839;51.364;7.246;2023-04-10T14:13:23;18.50;56.70
68051;DHT22;54839;51.364;7.246;2023-04-10T14:15:49;18.30;57.00
68051;DHT22;54839;51.364;7.246;2023-04-10T14:18:17;18.20;57.00
68051;DHT22;54839;51.364;7.246;2023-04-10T14:20:44;17.80;56.90
68051;DHT22;54839;51.364;7.246;2023-04-10T14:23:09;17.70;57.80
68051;DHT22;54839;51.364;7.246;2023-04-10T14:25:41;17.50;58.10
68051;DHT22;54839;51.364;7.246;2023-04-10T14:28:07;17.60;58.80
68051;DHT22;54839;51.364;7.246;2023-04-10T14:30:33;17.50;59.30
68051;DHT22;54839;51.364;7.246;2023-04-10T14:32:58;17.40;59.20
68051;DHT22;54839;51.364;7.246;2023-04-10T14:35:24;17.40;59.70
68051;DHT22;54839;51.364;7.246;2023-04-10T14:37:49;17.20;60.40
68051;DHT22;54839;51.364;7.246;2023-04-10T14:40:15;17.20;60.60
68051;DHT22;54839;51.364;7.246;2023-04-10T14:42:40;17.10;61.10
68051;DHT22;54839;51.364;7.246;2023-04-10T14:45:06;17.20;61.40
68051;DHT22;54839;51.364;7.246;2023-04-10T14:47:32;17.10;61.90
68051;DHT22;54839;51.364;7.246;2023-04-10T14:49:58;17.10;62.60
68051;DHT22;54839;51.364;7.246;2023-04-10T14:52:23;16.90;62.10
68051;DHT22;54839;51.364;7.246;2023-04-10T14:54:49;16.80;62.60
68051;DHT22;54839;51.364;7.246;2023-04-10T14:57:15;17.00;63.50
68051;DHT22;54839;51.364;7.246;2023-04-10T14:59:42;17.00;63.40
68051;DHT22;54839;51.364;7.246;2023-04-10T15:02:08;17.00;63.30
68051;DHT22;54839;51.364;7.246;2023-04-10T15:04:34;16.70;63.20
68051;DHT22;54839;51.364;7.246;2023-04-10T15:06:59;16.70;63.90
68051;DHT22;54839;51.364;7.246;2023-04-10T15:09:25;16.70;64.80
68051;DHT22;54839;51.364;7.246;2023-04-10T15:11:50;16.70;64.40
68051;DHT22;54839;51.364;7.246;2023-04-10T15:14:16;16.70;65.10
68051;DHT22;54839;51.364;7.246;2023-04-10T15:16:41;16.60;66.00
68051;DHT22;54839;51.364;7.246;2023-04-10T15:19:07;16.70;65.60
68051;DHT22;54839;51.364;7.246;2023-04-10T15:21:33;16.60;66.00
68051;DHT22;54839;51.364;7.246;2023-04-10T15:23:58;16.60;65.80
68051;DHT22;54839;51.364;7.246;2023-04-10T15:26:25;16.70;66.40
68051;DHT22;54839;51.364;7.246;2023-04-10T15:28:51;16.90;66.70
68051;DHT22;54839;51.364;7.246;2023-04-10T15:31:21;17.10;66.50
68051;DHT22;54839;51.364;7.246;2023-04-10T15:33:47;17.10;65.70
68051;DHT22;54839;51.364;7.246;2023-04-10T15:36:12;17.10;65.60
68051;DHT22;54839;51.364;7.246;2023-04-10T15:38:38;17.30;65.70
68051;DHT22;54839;51.364;7.246;2023-04-10T15:41:08;17.20;64.80
68051;DHT22;54839;51.364;7.246;2023-04-10T15:43:34;17.20;64.40
68051;DHT22;54839;51.364;7.246;2023-04-10T15:45:59;17.20;64.80
68051;DHT22;54839;51.364;7.246;2023-04-10T15:48:26;17.50;64.30
68051;DHT22;54839;51.364;7.246;2023-04-10T15:50:52;17.60;65.00
68051;DHT22;54839;51.364;7.246;2023-04-10T15:53:17;17.90;64.30
68051;DHT22;54839;51.364;7.246;2023-04-10T15:55:43;18.20;63.90
68051;DHT22;54839;51.364;7.246;2023-04-10T15:58:08;18.60;61.80
68051;DHT22;54839;51.364;7.246;2023-04-10T16:00:34;19.30;62.70
68051;DHT22;54839;51.364;7.246;2023-04-10T16:02:59;19.40;61.30
68051;DHT22;54839;51.364;7.246;2023-04-10T16:05:25;19.20;60.90